Time;durP1;ratioP1;P1;durP2;ratioP2;P2;SDS_P1;SDS_P2;PMS_P1;PMS_P2;Temp;Humidity;BMP_temperature;BMP_pressure;BME280_temperature;BME280_humidity;BME280_pressure;Samples;Min_cycle;Max_cycle;Signal;HPM_P1;HPM_P2
2021/08/13 00:01:18;;;;;;;4.72;0.70;;;;;;;;;;5055955;28;20095;-68
2021/08/13 00:03:45;;;;;;;4.63;0.75;;;;;;;;;;5055466;28;20034;-68
2021/08/13 00:06:14;;;;;;;5.00;0.88;;;;;;;;;;5050884;28;20045;-67
2021/08/13 00:08:41;;;;;;;3.55;0.63;;;;;;;;;;5047283;28;20033;-68
2021/08/13 00:11:08;;;;;;;2.95;0.95;;;;;;;;;;5075035;28;20043;-68
2021/08/13 00:13:35;;;;;;;3.78;0.60;;;;;;;;;;5071728;28;20033;-69
2021/08/13 00:16:02;;;;;;;3.58;0.80;;;;;;;;;;5065624;28;20037;-70
2021/08/13 00:18:29;;;;;;;2.10;0.50;;;;;;;;;;5059684;28;20116;-70
2021/08/13 00:20:56;;;;;;;5.47;0.55;;;;;;;;;;5054460;28;20047;-69
2021/08/13 00:23:23;;;;;;;1.88;0.50;;;;;;;;;;5059527;28;20059;-68
2021/08/13 00:25:50;;;;;;;2.78;0.70;;;;;;;;;;5037093;28;20060;-67
2021/08/13 00:28:18;;;;;;;5.35;0.68;;;;;;;;;;5055190;28;20041;-68
2021/08/13 00:30:45;;;;;;;3.90;0.70;;;;;;;;;;5074536;28;20042;-68
2021/08/13 00:33:12;;;;;;;5.10;1.00;;;;;;;;;;5071499;28;20460;-69
2021/08/13 00:35:39;;;;;;;6.25;0.93;;;;;;;;;;5074678;28;20103;-70
2021/08/13 00:38:06;;;;;;;2.58;0.50;;;;;;;;;;5071299;28;20037;-68
2021/08/13 00:40:33;;;;;;;3.40;0.60;;;;;;;;;;5074329;28;20033;-69
2021/08/13 00:43:01;;;;;;;2.92;0.40;;;;;;;;;;5050062;28;20059;-68
2021/08/13 00:45:28;;;;;;;5.60;0.70;;;;;;;;;;5049130;28;20393;-68
2021/08/13 00:47:55;;;;;;;4.25;0.70;;;;;;;;;;5049471;28;20109;-69
2021/08/13 00:50:22;;;;;;;4.75;1.10;;;;;;;;;;5051645;28;20052;-68
2021/08/13 00:52:50;;;;;;;2.28;0.60;;;;;;;;;;5059136;28;20024;-68
2021/08/13 00:55:17;;;;;;;3.83;0.80;;;;;;;;;;5074255;28;20035;-68
2021/08/13 00:57:44;;;;;;;3.75;0.90;;;;;;;;;;5070974;28;20029;-68
2021/08/13 01:00:11;;;;;;;4.55;0.80;;;;;;;;;;5056199;28;20028;-68
2021/08/13 01:02:38;;;;;;;5.22;1.38;;;;;;;;;;5070383;28;20530;-68
2021/08/13 01:05:06;;;;;;;7.28;0.98;;;;;;;;;;5074053;28;20072;-68
2021/08/13 01:07:33;;;;;;;4.00;0.90;;;;;;;;;;5052944;28;20048;-68
2021/08/13 01:10:00;;;;;;;5.88;0.75;;;;;;;;;;5050173;28;20124;-67
2021/08/13 01:12:27;;;;;;;4.05;1.45;;;;;;;;;;5047392;28;20052;-68
2021/08/13 01:15:03;;;;;;;6.28;0.90;;;;;;;;;;5055047;28;20104;-68
2021/08/13 01:17:34;;;;;;;3.50;0.82;;;;;;;;;;5051256;28;20036;-68
2021/08/13 01:20:06;;;;;;;3.80;0.57;;;;;;;;;;5047481;28;20951;-69
2021/08/13 01:22:53;;;;;;;4.45;0.63;;;;;;;;;;5051920;28;20033;-68
2021/08/13 01:25:22;;;;;;;5.03;0.95;;;;;;;;;;5050467;28;20034;-67
2021/08/13 01:27:51;;;;;;;2.45;0.40;;;;;;;;;;5050009;28;20453;-67
2021/08/13 01:30:20;;;;;;;7.07;1.40;;;;;;;;;;5047338;28;20036;-68
2021/08/13 01:32:51;;;;;;;3.25;0.80;;;;;;;;;;5048296;28;20041;-67
2021/08/13 01:35:19;;;;;;;5.65;0.73;;;;;;;;;;5047248;28;20029;-67
2021/08/13 01:37:51;;;;;;;6.05;0.85;;;;;;;;;;5048478;28;20024;-68
2021/08/13 01:40:18;;;;;;;3.08;0.80;;;;;;;;;;5028524;28;20501;-68
2021/08/13 01:42:46;;;;;;;3.35;0.68;;;;;;;;;;5045348;28;20035;-68
2021/08/13 01:45:16;;;;;;;2.60;0.50;;;;;;;;;;5037215;28;20103;-68
2021/08/13 01:47:43;;;;;;;2.15;0.60;;;;;;;;;;5051866;28;20554;-68
2021/08/13 01:50:10;;;;;;;4.20;0.60;;;;;;;;;;5048992;28;20041;-68
2021/08/13 01:52:38;;;;;;;4.35;0.95;;;;;;;;;;5051666;28;20396;-68
2021/08/13 01:55:05;;;;;;;4.53;0.95;;;;;;;;;;5048591;28;20029;-67
2021/08/13 01:57:33;;;;;;;3.85;0.60;;;;;;;;;;5047942;28;20033;-67
2021/08/13 02:00:00;;;;;;;3.22;0.63;;;;;;;;;;5045404;28;20461;-67
2021/08/13 02:02:28;;;;;;;5.05;0.80;;;;;;;;;;5049154;28;20509;-67
2021/08/13 02:04:55;;;;;;;5.90;0.90;;;;;;;;;;5047573;28;20025;-68
2021/08/13 02:07:22;;;;;;;3.45;0.80;;;;;;;;;;5046991;28;20049;-68
2021/08/13 02:09:50;;;;;;;5.05;0.82;;;;;;;;;;5044257;28;20044;-67
2021/08/13 02:12:17;;;;;;;2.25;0.80;;;;;;;;;;5019300;28;20036;-67
2021/08/13 02:14:44;;;;;;;3.47;1.10;;;;;;;;;;5048159;28;20033;-67
2021/08/13 02:17:14;;;;;;;3.65;0.93;;;;;;;;;;5050934;28;20128;-68
2021/08/13 02:19:49;;;;;;;4.22;0.80;;;;;;;;;;5051953;28;20040;-67
2021/08/13 02:22:17;;;;;;;4.05;0.73;;;;;;;;;;5049782;28;20044;-68
2021/08/13 02:24:47;;;;;;;8.48;1.70;;;;;;;;;;5050972;28;20037;-67
2021/08/13 02:27:14;;;;;;;5.55;0.88;;;;;;;;;;5050843;28;20061;-67
2021/08/13 02:29:41;;;;;;;4.88;0.77;;;;;;;;;;5048874;28;20033;-66
2021/08/13 02:32:09;;;;;;;4.18;0.60;;;;;;;;;;5048012;28;20025;-67
2021/08/13 02:34:36;;;;;;;4.10;0.68;;;;;;;;;;5052487;28;20032;-67
2021/08/13 02:37:09;;;;;;;3.28;0.40;;;;;;;;;;5050316;28;20040;-67
2021/08/13 02:39:54;;;;;;;3.20;0.55;;;;;;;;;;5048876;28;20044;-67
2021/08/13 02:42:27;;;;;;;6.03;0.98;;;;;;;;;;5051236;28;20087;-68
2021/08/13 02:44:57;;;;;;;5.45;1.27;;;;;;;;;;5049481;28;20029;-67
2021/08/13 02:47:26;;;;;;;4.07;1.15;;;;;;;;;;5046823;28;20028;-68
2021/08/13 02:50:02;;;;;;;7.28;0.88;;;;;;;;;;5050182;28;20029;-68
2021/08/13 02:52:38;;;;;;;3.13;0.57;;;;;;;;;;5049851;28;20021;-68
2021/08/13 02:55:07;;;;;;;5.97;0.80;;;;;;;;;;5045290;28;20036;-67
2021/08/13 02:57:37;;;;;;;2.67;0.50;;;;;;;;;;5044831;28;20025;-67
2021/08/13 03:00:06;;;;;;;4.63;0.80;;;;;;;;;;5031410;28;20118;-68
2021/08/13 03:02:34;;;;;;;3.08;0.80;;;;;;;;;;5050303;28;20033;-67
2021/08/13 03:05:01;;;;;;;4.38;0.90;;;;;;;;;;5051635;28;20041;-69
2021/08/13 03:07:29;;;;;;;3.58;0.60;;;;;;;;;;5046085;28;20088;-69
2021/08/13 03:09:56;;;;;;;3.97;0.50;;;;;;;;;;5048304;28;20029;-68
2021/08/13 03:12:23;;;;;;;6.30;0.60;;;;;;;;;;5046791;28;20037;-68
2021/08/13 03:14:52;;;;;;;6.13;0.80;;;;;;;;;;5028719;28;20032;-68
2021/08/13 03:17:19;;;;;;;2.78;0.60;;;;;;;;;;5043928;28;20083;-68
2021/08/13 03:19:46;;;;;;;5.82;1.17;;;;;;;;;;5051742;28;20036;-68
2021/08/13 03:22:13;;;;;;;3.10;0.45;;;;;;;;;;5045624;28;20449;-68
2021/08/13 03:24:41;;;;;;;4.75;0.82;;;;;;;;;;5048936;28;20401;-68
2021/08/13 03:27:08;;;;;;;3.78;0.60;;;;;;;;;;5047254;28;20510;-68
2021/08/13 03:29:35;;;;;;;4.05;0.57;;;;;;;;;;5051382;28;20037;-68
2021/08/13 03:32:04;;;;;;;3.92;0.95;;;;;;;;;;5047209;28;20432;-68
2021/08/13 03:34:32;;;;;;;3.92;0.50;;;;;;;;;;5047939;28;20025;-68
2021/08/13 03:37:00;;;;;;;5.18;0.70;;;;;;;;;;5049497;28;20033;-68
2021/08/13 03:39:28;;;;;;;2.65;0.50;;;;;;;;;;5052052;28;20037;-68
2021/08/13 03:41:56;;;;;;;5.03;0.47;;;;;;;;;;5051122;28;20045;-69
2021/08/13 03:44:23;;;;;;;2.75;0.60;;;;;;;;;;5057724;28;20509;-70
2021/08/13 03:46:50;;;;;;;5.95;0.60;;;;;;;;;;5050241;28;20071;-68
2021/08/13 03:49:17;;;;;;;2.38;1.08;;;;;;;;;;5052234;28;20451;-68
2021/08/13 03:51:44;;;;;;;8.32;1.20;;;;;;;;;;5054659;28;20143;-69
2021/08/13 03:54:11;;;;;;;3.13;0.88;;;;;;;;;;5053005;28;20111;-69
2021/08/13 03:56:39;;;;;;;3.22;0.60;;;;;;;;;;5052935;28;20389;-68
2021/08/13 03:59:06;;;;;;;3.92;0.60;;;;;;;;;;5055963;28;20055;-69
2021/08/13 04:01:33;;;;;;;2.83;0.85;;;;;;;;;;5042346;28;20557;-68
2021/08/13 04:04:01;;;;;;;3.00;0.50;;;;;;;;;;5049568;28;20029;-69
2021/08/13 04:06:28;;;;;;;3.40;0.60;;;;;;;;;;5053088;28;20051;-68
2021/08/13 04:08:55;;;;;;;2.95;0.63;;;;;;;;;;5050805;28;20057;-69
2021/08/13 04:11:22;;;;;;;4.00;0.90;;;;;;;;;;5046250;28;20634;-68
2021/08/13 04:13:49;;;;;;;2.25;0.60;;;;;;;;;;5050016;28;20108;-69
2021/08/13 04:16:16;;;;;;;1.15;0.40;;;;;;;;;;5051557;28;20744;-69
2021/08/13 04:18:43;;;;;;;4.35;1.08;;;;;;;;;;5056992;28;20036;-69
2021/08/13 04:21:10;;;;;;;4.18;0.60;;;;;;;;;;5056028;28;20068;-69
2021/08/13 04:23:38;;;;;;;6.00;1.05;;;;;;;;;;5053060;28;20041;-69
2021/08/13 04:26:05;;;;;;;2.95;0.80;;;;;;;;;;5049667;28;20037;-69
2021/08/13 04:28:32;;;;;;;2.20;0.70;;;;;;;;;;5051810;28;20025;-69
2021/08/13 04:30:59;;;;;;;4.97;1.00;;;;;;;;;;5049196;28;20075;-68
2021/08/13 04:33:26;;;;;;;7.32;0.65;;;;;;;;;;5063914;28;20037;-69
2021/08/13 04:35:53;;;;;;;3.67;0.60;;;;;;;;;;5059640;28;20021;-69
2021/08/13 04:38:20;;;;;;;3.75;0.60;;;;;;;;;;5053005;28;20079;-68
2021/08/13 04:40:48;;;;;;;7.90;0.90;;;;;;;;;;5051052;28;20041;-67
2021/08/13 04:43:15;;;;;;;4.35;0.75;;;;;;;;;;5059144;28;20044;-68
2021/08/13 04:45:42;;;;;;;3.83;0.82;;;;;;;;;;5053374;28;20048;-68
2021/08/13 04:48:09;;;;;;;3.38;0.90;;;;;;;;;;5061323;28;20545;-68
2021/08/13 04:50:39;;;;;;;7.05;0.95;;;;;;;;;;5053346;28;20091;-67
2021/08/13 04:53:06;;;;;;;7.65;1.08;;;;;;;;;;5054698;28;20024;-66
2021/08/13 04:55:33;;;;;;;6.13;1.42;;;;;;;;;;5050410;28;20393;-67
2021/08/13 04:58:00;;;;;;;3.72;0.57;;;;;;;;;;5048991;28;20067;-68
2021/08/13 05:00:28;;;;;;;4.47;0.90;;;;;;;;;;5051150;28;20033;-67
2021/08/13 05:02:55;;;;;;;3.17;0.65;;;;;;;;;;5049652;28;20033;-67
2021/08/13 05:05:22;;;;;;;4.18;0.50;;;;;;;;;;5050789;28;20401;-68
2021/08/13 05:07:50;;;;;;;4.13;0.98;;;;;;;;;;5047518;28;20079;-68
2021/08/13 05:10:18;;;;;;;4.63;1.05;;;;;;;;;;5037378;28;20042;-69
2021/08/13 05:12:46;;;;;;;3.03;1.08;;;;;;;;;;5052897;28;20124;-68
2021/08/13 05:15:13;;;;;;;4.32;0.60;;;;;;;;;;5051010;28;20056;-68
2021/08/13 05:17:40;;;;;;;2.80;0.32;;;;;;;;;;5047187;28;20036;-68
2021/08/13 05:20:08;;;;;;;1.52;0.30;;;;;;;;;;5050926;28;20041;-68
2021/08/13 05:22:36;;;;;;;3.28;0.50;;;;;;;;;;5049883;28;20045;-69
2021/08/13 05:25:04;;;;;;;5.78;1.00;;;;;;;;;;5048663;28;20028;-67
2021/08/13 05:27:31;;;;;;;4.10;0.50;;;;;;;;;;5048544;28;20400;-68
2021/08/13 05:29:58;;;;;;;4.35;0.30;;;;;;;;;;5041066;28;20060;-70
2021/08/13 05:32:26;;;;;;;2.63;0.57;;;;;;;;;;5036825;28;20033;-68
2021/08/13 05:34:54;;;;;;;1.30;0.30;;;;;;;;;;5053077;28;20025;-69
2021/08/13 05:37:21;;;;;;;2.17;0.30;;;;;;;;;;5051376;28;20072;-70
2021/08/13 05:39:48;;;;;;;2.78;0.40;;;;;;;;;;5052653;28;20028;-69
2021/08/13 05:42:15;;;;;;;2.47;0.40;;;;;;;;;;5051745;28;20366;-69
2021/08/13 05:44:42;;;;;;;2.28;0.50;;;;;;;;;;5052324;28;20854;-70
2021/08/13 05:47:09;;;;;;;2.03;0.70;;;;;;;;;;5050953;28;20037;-69
2021/08/13 05:49:36;;;;;;;3.58;0.40;;;;;;;;;;5051787;28;20033;-69
2021/08/13 05:52:04;;;;;;;2.50;0.30;;;;;;;;;;5051667;28;20036;-68
2021/08/13 05:54:31;;;;;;;1.95;0.40;;;;;;;;;;5034267;28;20065;-69
2021/08/13 05:56:58;;;;;;;4.47;0.55;;;;;;;;;;5050801;28;20044;-69
2021/08/13 05:59:25;;;;;;;1.73;0.30;;;;;;;;;;5052700;28;20079;-70
2021/08/13 06:01:52;;;;;;;1.73;0.40;;;;;;;;;;5049187;28;20049;-69
2021/08/13 06:04:20;;;;;;;2.42;0.50;;;;;;;;;;5051112;28;20497;-70
2021/08/13 06:06:47;;;;;;;2.17;0.43;;;;;;;;;;5048190;28;20155;-69
2021/08/13 06:09:14;;;;;;;2.83;0.98;;;;;;;;;;5055264;28;20055;-69
2021/08/13 06:11:41;;;;;;;2.65;0.63;;;;;;;;;;5051401;28;20103;-70
2021/08/13 06:14:08;;;;;;;4.85;0.52;;;;;;;;;;5049047;28;20076;-69
2021/08/13 06:16:35;;;;;;;2.90;0.50;;;;;;;;;;5052637;28;20033;-68
2021/08/13 06:19:03;;;;;;;3.97;0.40;;;;;;;;;;5050259;28;20029;-68
2021/08/13 06:21:30;;;;;;;3.58;0.30;;;;;;;;;;5051723;28;20057;-69
2021/08/13 06:23:58;;;;;;;3.40;0.82;;;;;;;;;;5046189;28;20044;-67
2021/08/13 06:26:25;;;;;;;3.90;0.40;;;;;;;;;;5050963;28;20485;-67
2021/08/13 06:28:52;;;;;;;2.78;0.68;;;;;;;;;;5044286;28;20033;-68
2021/08/13 06:31:21;;;;;;;3.03;0.50;;;;;;;;;;5046410;28;20028;-69
2021/08/13 06:33:49;;;;;;;2.85;0.70;;;;;;;;;;5057822;28;20117;-68
2021/08/13 06:36:16;;;;;;;1.50;0.77;;;;;;;;;;5048440;28;20650;-69
2021/08/13 06:38:43;;;;;;;4.72;0.75;;;;;;;;;;5047016;28;20049;-69
2021/08/13 06:41:11;;;;;;;2.50;0.60;;;;;;;;;;5054692;28;20120;-69
2021/08/13 06:43:38;;;;;;;3.28;0.77;;;;;;;;;;5056755;28;20478;-68
2021/08/13 06:46:05;;;;;;;2.00;0.50;;;;;;;;;;5050147;28;20100;-69
2021/08/13 06:48:32;;;;;;;5.40;0.73;;;;;;;;;;5050707;28;20087;-68
2021/08/13 06:50:59;;;;;;;3.00;0.60;;;;;;;;;;5048454;28;20057;-68
2021/08/13 06:53:26;;;;;;;2.13;0.60;;;;;;;;;;5047874;28;20039;-69
2021/08/13 06:55:53;;;;;;;2.10;0.60;;;;;;;;;;5060543;28;20059;-68
2021/08/13 06:58:20;;;;;;;2.88;0.77;;;;;;;;;;5047937;28;20040;-68
2021/08/13 07:00:48;;;;;;;3.75;1.13;;;;;;;;;;5048489;28;20047;-68
2021/08/13 07:03:15;;;;;;;4.55;1.23;;;;;;;;;;5051655;28;20535;-68
2021/08/13 07:05:42;;;;;;;4.22;1.15;;;;;;;;;;5046158;28;20028;-68
2021/08/13 07:08:12;;;;;;;7.38;1.50;;;;;;;;;;5046524;28;20086;-68
2021/08/13 07:10:40;;;;;;;4.35;1.40;;;;;;;;;;5049475;28;20037;-68
2021/08/13 07:13:07;;;;;;;7.03;1.75;;;;;;;;;;5053785;28;20056;-68
2021/08/13 07:15:34;;;;;;;8.35;1.88;;;;;;;;;;5049565;28;20048;-69
2021/08/13 07:18:01;;;;;;;5.43;1.63;;;;;;;;;;5057067;28;20039;-69
2021/08/13 07:20:28;;;;;;;9.63;1.92;;;;;;;;;;5053422;28;20026;-69
2021/08/13 07:22:55;;;;;;;5.38;0.93;;;;;;;;;;5059815;28;20031;-69
2021/08/13 07:25:23;;;;;;;2.97;0.93;;;;;;;;;;5051531;28;20029;-70
2021/08/13 07:27:50;;;;;;;4.45;0.90;;;;;;;;;;5049255;28;20041;-69
2021/08/13 07:30:17;;;;;;;2.97;0.85;;;;;;;;;;5050702;28;20083;-69
2021/08/13 07:32:45;;;;;;;3.65;1.10;;;;;;;;;;5039475;28;20032;-69
2021/08/13 07:35:12;;;;;;;5.28;1.60;;;;;;;;;;5050021;28;20440;-69
2021/08/13 07:37:40;;;;;;;6.53;0.90;;;;;;;;;;5051156;28;20033;-69
2021/08/13 07:40:08;;;;;;;4.65;1.10;;;;;;;;;;5046970;28;20047;-69
2021/08/13 07:42:36;;;;;;;5.70;1.25;;;;;;;;;;5044825;28;20378;-70
2021/08/13 07:45:04;;;;;;;3.58;1.45;;;;;;;;;;5046395;28;20091;-69
2021/08/13 07:47:31;;;;;;;5.03;1.33;;;;;;;;;;5037385;28;20033;-69
2021/08/13 07:49:58;;;;;;;4.63;1.55;;;;;;;;;;5049104;28;20096;-67
2021/08/13 07:52:26;;;;;;;3.85;1.25;;;;;;;;;;5049037;28;20447;-69
2021/08/13 07:54:53;;;;;;;7.97;1.92;;;;;;;;;;5047672;28;20044;-69
2021/08/13 07:57:21;;;;;;;6.20;2.08;;;;;;;;;;5037765;28;20044;-70
2021/08/13 07:59:49;;;;;;;6.38;2.13;;;;;;;;;;5050983;28;20113;-70
2021/08/13 08:02:16;;;;;;;6.78;2.28;;;;;;;;;;5050787;28;20128;-71
2021/08/13 08:04:44;;;;;;;6.57;1.92;;;;;;;;;;5050106;28;20028;-70
2021/08/13 08:07:12;;;;;;;3.47;1.77;;;;;;;;;;5029722;28;20498;-70
2021/08/13 08:09:39;;;;;;;4.32;2.03;;;;;;;;;;5037243;28;20033;-69
2021/08/13 08:12:06;;;;;;;5.25;2.40;;;;;;;;;;5029489;28;20041;-69
2021/08/13 08:14:33;;;;;;;9.02;3.15;;;;;;;;;;5046670;28;20099;-70
2021/08/13 08:17:01;;;;;;;6.93;3.35;;;;;;;;;;5049646;28;20033;-70
2021/08/13 08:19:28;;;;;;;7.28;3.10;;;;;;;;;;5048500;28;20183;-70
2021/08/13 08:21:55;;;;;;;6.88;2.90;;;;;;;;;;5051620;28;20056;-70
2021/08/13 08:24:22;;;;;;;5.38;3.28;;;;;;;;;;5053786;28;20036;-70
2021/08/13 08:26:49;;;;;;;6.00;3.20;;;;;;;;;;5054267;28;20079;-71
2021/08/13 08:29:17;;;;;;;8.05;4.15;;;;;;;;;;5053633;28;20491;-70
2021/08/13 08:31:44;;;;;;;6.93;3.55;;;;;;;;;;5036418;28;20037;-70
2021/08/13 08:34:11;;;;;;;8.20;4.47;;;;;;;;;;5051833;28;20029;-69
2021/08/13 08:36:38;;;;;;;9.75;5.20;;;;;;;;;;5038418;28;20149;-68
2021/08/13 08:39:05;;;;;;;8.13;5.00;;;;;;;;;;5045755;28;20124;-68
2021/08/13 08:41:33;;;;;;;9.88;4.72;;;;;;;;;;5053925;28;20064;-69
2021/08/13 08:44:00;;;;;;;9.05;4.47;;;;;;;;;;5054000;28;20533;-68
2021/08/13 08:46:27;;;;;;;7.18;4.25;;;;;;;;;;5054496;28;20075;-69
2021/08/13 08:48:55;;;;;;;6.10;3.42;;;;;;;;;;5048129;28;20401;-68
2021/08/13 08:51:23;;;;;;;8.85;4.30;;;;;;;;;;5054329;28;20119;-66
2021/08/13 08:53:51;;;;;;;9.50;5.22;;;;;;;;;;5037710;28;20033;-67
2021/08/13 08:56:19;;;;;;;13.95;5.45;;;;;;;;;;5053922;28;20040;-68
2021/08/13 08:58:47;;;;;;;12.13;7.22;;;;;;;;;;5053314;28;20064;-68
2021/08/13 09:01:15;;;;;;;14.23;6.35;;;;;;;;;;5054058;28;20037;-70
2021/08/13 09:03:42;;;;;;;13.23;10.35;;;;;;;;;;5053474;28;20037;-70
2021/08/13 09:06:10;;;;;;;19.73;13.23;;;;;;;;;;5051156;28;20060;-70
2021/08/13 09:08:37;;;;;;;18.15;13.35;;;;;;;;;;5053979;28;20037;-69
2021/08/13 09:11:05;;;;;;;18.20;12.40;;;;;;;;;;5052768;28;20567;-69
2021/08/13 09:13:37;;;;;;;16.58;13.75;;;;;;;;;;5053301;28;20029;-70
2021/08/13 09:16:15;;;;;;;21.20;12.50;;;;;;;;;;5051840;28;20087;-69
2021/08/13 09:18:43;;;;;;;18.67;12.18;;;;;;;;;;5052517;28;20065;-70
2021/08/13 09:21:10;;;;;;;18.08;13.98;;;;;;;;;;5053415;28;20056;-70
2021/08/13 09:23:37;;;;;;;71.20;53.28;;;;;;;;;;5053112;28;20082;-69
2021/08/13 09:26:23;;;;;;;46.58;31.38;;;;;;;;;;5053003;28;20033;-68
2021/08/13 09:28:52;;;;;;;70.85;48.75;;;;;;;;;;5051792;28;20032;-68
2021/08/13 09:31:19;;;;;;;102.43;73.55;;;;;;;;;;5048774;28;20064;-68
2021/08/13 09:33:48;;;;;;;78.10;53.50;;;;;;;;;;5051734;28;20390;-69
2021/08/13 09:36:17;;;;;;;60.63;45.42;;;;;;;;;;5032676;28;20094;-69
2021/08/13 09:38:44;;;;;;;48.45;34.45;;;;;;;;;;5051568;28;20056;-66
2021/08/13 09:41:13;;;;;;;51.30;36.30;;;;;;;;;;5052042;28;20048;-66
2021/08/13 09:43:53;;;;;;;42.72;30.40;;;;;;;;;;5050767;28;20398;-65
2021/08/13 09:46:21;;;;;;;42.28;29.33;;;;;;;;;;5043458;28;20037;-66
2021/08/13 09:48:48;;;;;;;38.97;29.80;;;;;;;;;;5033326;28;20424;-65
2021/08/13 09:51:38;;;;;;;34.05;22.95;;;;;;;;;;5052954;28;20037;-66
2021/08/13 09:54:06;;;;;;;27.08;19.38;;;;;;;;;;5031603;28;20037;-66
2021/08/13 09:56:35;;;;;;;24.98;18.02;;;;;;;;;;5049616;28;20025;-66
2021/08/13 09:59:17;;;;;;;30.98;22.27;;;;;;;;;;5052800;28;20029;-66
2021/08/13 10:01:48;;;;;;;29.90;21.67;;;;;;;;;;5047898;28;20417;-66
2021/08/13 10:04:17;;;;;;;36.88;22.95;;;;;;;;;;5032895;28;20056;-66
2021/08/13 10:06:45;;;;;;;35.05;23.83;;;;;;;;;;5028379;28;20127;-66
2021/08/13 10:09:29;;;;;;;30.15;20.83;;;;;;;;;;5049315;28;20025;-66
2021/08/13 10:12:03;;;;;;;23.83;13.75;;;;;;;;;;5052183;28;20036;-66
2021/08/13 10:14:31;;;;;;;25.33;16.80;;;;;;;;;;5042383;28;20088;-66
2021/08/13 10:17:07;;;;;;;22.17;12.70;;;;;;;;;;5051929;28;20055;-66
2021/08/13 10:19:34;;;;;;;18.65;10.95;;;;;;;;;;5049273;28;20036;-66
2021/08/13 10:22:02;;;;;;;27.83;14.45;;;;;;;;;;5032612;28;20124;-65
2021/08/13 10:24:29;;;;;;;21.42;12.48;;;;;;;;;;5048443;28;20060;-65
2021/08/13 10:26:57;;;;;;;18.33;10.27;;;;;;;;;;5033934;28;20533;-66
2021/08/13 10:29:25;;;;;;;20.35;9.57;;;;;;;;;;5052140;28;20036;-66
2021/08/13 10:31:53;;;;;;;19.10;8.30;;;;;;;;;;5052037;28;20036;-66
2021/08/13 10:34:20;;;;;;;12.60;5.70;;;;;;;;;;5051642;28;20037;-66
2021/08/13 10:36:47;;;;;;;16.83;6.70;;;;;;;;;;5052141;28;20040;-66
2021/08/13 10:39:17;;;;;;;15.52;6.78;;;;;;;;;;5052247;28;20033;-66
2021/08/13 10:41:46;;;;;;;11.77;5.68;;;;;;;;;;5050200;28;20187;-66
2021/08/13 10:44:15;;;;;;;13.65;5.80;;;;;;;;;;5045973;28;20044;-65
2021/08/13 10:46:43;;;;;;;9.68;5.38;;;;;;;;;;5014300;28;20029;-65
2021/08/13 10:49:18;;;;;;;10.40;4.93;;;;;;;;;;5051807;28;20496;-66
2021/08/13 10:51:45;;;;;;;11.65;5.20;;;;;;;;;;5051043;28;20041;-66
2021/08/13 10:54:14;;;;;;;13.48;4.53;;;;;;;;;;5051382;28;20037;-65
2021/08/13 10:56:45;;;;;;;18.60;7.30;;;;;;;;;;5050872;28;20029;-66
2021/08/13 10:59:12;;;;;;;12.80;5.03;;;;;;;;;;5038551;28;20095;-66
2021/08/13 11:01:58;;;;;;;12.98;4.68;;;;;;;;;;5051656;28;20120;-65
2021/08/13 11:04:39;;;;;;;11.20;4.20;;;;;;;;;;5034073;28;20094;-65
2021/08/13 11:07:07;;;;;;;13.88;5.93;;;;;;;;;;5053886;28;20177;-67
2021/08/13 11:09:35;;;;;;;11.48;5.55;;;;;;;;;;5052534;28;20064;-69
2021/08/13 11:12:04;;;;;;;8.38;3.63;;;;;;;;;;5060659;28;20036;-70
2021/08/13 11:14:32;;;;;;;11.90;3.95;;;;;;;;;;5049565;28;20493;-69
2021/08/13 11:17:00;;;;;;;9.77;4.18;;;;;;;;;;5035354;28;20045;-68
2021/08/13 11:19:28;;;;;;;11.32;3.75;;;;;;;;;;5043414;28;20033;-69
2021/08/13 11:21:58;;;;;;;9.93;4.60;;;;;;;;;;5051047;28;20098;-69
2021/08/13 11:24:26;;;;;;;8.27;3.13;;;;;;;;;;5051493;28;20036;-68
2021/08/13 11:26:54;;;;;;;9.00;3.22;;;;;;;;;;5051200;28;20389;-68
2021/08/13 11:29:30;;;;;;;10.98;4.13;;;;;;;;;;5051566;28;20029;-69
2021/08/13 11:32:17;;;;;;;10.35;3.22;;;;;;;;;;5048152;28;20052;-68
2021/08/13 11:34:50;;;;;;;7.07;2.13;;;;;;;;;;5044124;28;20506;-68
2021/08/13 11:37:29;;;;;;;6.80;2.22;;;;;;;;;;5045621;28;20631;-69
2021/08/13 11:40:00;;;;;;;7.45;2.53;;;;;;;;;;5050401;28;20055;-68
2021/08/13 11:42:34;;;;;;;5.32;2.53;;;;;;;;;;5033339;28;20043;-70
2021/08/13 11:45:09;;;;;;;9.35;3.70;;;;;;;;;;5048671;28;20487;-68
2021/08/13 11:47:36;;;;;;;7.15;3.92;;;;;;;;;;5046685;28;20065;-68
2021/08/13 11:50:08;;;;;;;6.03;3.30;;;;;;;;;;5048281;28;20029;-68
2021/08/13 11:52:36;;;;;;;5.57;2.67;;;;;;;;;;5031215;28;20549;-67
2021/08/13 11:55:20;;;;;;;6.20;3.13;;;;;;;;;;5040967;28;20100;-68
2021/08/13 11:57:48;;;;;;;6.40;3.05;;;;;;;;;;5049890;28;20485;-66
2021/08/13 12:00:18;;;;;;;8.68;3.72;;;;;;;;;;5049807;28;20465;-67
2021/08/13 12:02:46;;;;;;;10.20;4.22;;;;;;;;;;5053768;28;20674;-67
2021/08/13 12:05:13;;;;;;;9.35;3.65;;;;;;;;;;5054269;28;20084;-68
2021/08/13 12:07:41;;;;;;;13.90;3.72;;;;;;;;;;5046664;28;20405;-68
2021/08/13 12:10:12;;;;;;;17.83;4.07;;;;;;;;;;5053524;28;20029;-67
2021/08/13 12:12:40;;;;;;;9.23;2.55;;;;;;;;;;5054675;28;20484;-67
2021/08/13 12:15:07;;;;;;;8.63;3.00;;;;;;;;;;5054056;28;20041;-67
2021/08/13 12:17:34;;;;;;;7.25;2.78;;;;;;;;;;5053872;28;20087;-67
2021/08/13 12:20:03;;;;;;;10.30;2.95;;;;;;;;;;5062587;28;20053;-67
2021/08/13 12:22:30;;;;;;;12.98;3.40;;;;;;;;;;5054149;28;20500;-67
2021/08/13 12:24:57;;;;;;;7.32;2.65;;;;;;;;;;5054554;28;20037;-67
2021/08/13 12:27:29;;;;;;;10.88;3.42;;;;;;;;;;5048616;28;20037;-68
2021/08/13 12:29:56;;;;;;;12.18;3.58;;;;;;;;;;5051707;28;20033;-68
2021/08/13 12:32:35;;;;;;;9.65;2.85;;;;;;;;;;5029897;28;20037;-68
2021/08/13 12:35:02;;;;;;;7.60;2.20;;;;;;;;;;5053347;28;20033;-66
2021/08/13 12:37:29;;;;;;;7.15;2.40;;;;;;;;;;5052727;28;20108;-68
2021/08/13 12:40:00;;;;;;;9.13;2.90;;;;;;;;;;5043609;28;20094;-67
2021/08/13 12:42:27;;;;;;;7.75;2.72;;;;;;;;;;5061808;28;20068;-67
2021/08/13 12:44:54;;;;;;;7.18;2.72;;;;;;;;;;5053403;28;20044;-68
2021/08/13 12:47:22;;;;;;;9.48;2.80;;;;;;;;;;5052530;28;20037;-68
2021/08/13 12:49:49;;;;;;;12.48;3.17;;;;;;;;;;5071806;28;20039;-68
2021/08/13 12:52:17;;;;;;;29.55;5.78;;;;;;;;;;5050850;28;20374;-68
2021/08/13 12:54:45;;;;;;;17.60;4.03;;;;;;;;;;5067058;28;20075;-68
2021/08/13 12:57:13;;;;;;;27.23;7.07;;;;;;;;;;5027269;28;20099;-68
2021/08/13 12:59:41;;;;;;;32.55;6.65;;;;;;;;;;5055067;28;20456;-68
2021/08/13 13:02:10;;;;;;;79.97;14.50;;;;;;;;;;5052764;28;20652;-67
2021/08/13 13:04:38;;;;;;;56.75;11.70;;;;;;;;;;5038761;28;20037;-68
2021/08/13 13:07:06;;;;;;;64.10;11.48;;;;;;;;;;5054594;28;20040;-67
2021/08/13 13:09:38;;;;;;;42.03;9.05;;;;;;;;;;5053590;28;20571;-68
2021/08/13 13:12:12;;;;;;;17.65;7.38;;;;;;;;;;5053387;28;20032;-68
2021/08/13 13:14:40;;;;;;;17.60;8.18;;;;;;;;;;5053459;28;20512;-66
2021/08/13 13:17:08;;;;;;;16.13;7.65;;;;;;;;;;5053563;28;20385;-69
2021/08/13 13:19:35;;;;;;;16.55;9.15;;;;;;;;;;5053752;28;20167;-67
2021/08/13 13:22:21;;;;;;;17.38;8.95;;;;;;;;;;5040815;28;20060;-67
2021/08/13 13:25:07;;;;;;;15.93;9.05;;;;;;;;;;5048402;28;20028;-67
2021/08/13 13:27:52;;;;;;;15.10;8.93;;;;;;;;;;5040347;28;20036;-67
2021/08/13 13:30:37;;;;;;;14.77;9.32;;;;;;;;;;5052373;28;20511;-68
2021/08/13 13:33:05;;;;;;;17.05;9.57;;;;;;;;;;5033694;28;20060;-67
2021/08/13 13:35:33;;;;;;;16.42;10.15;;;;;;;;;;5037315;28;20065;-68
2021/08/13 13:38:01;;;;;;;18.55;9.93;;;;;;;;;;5050804;28;20083;-67
2021/08/13 13:40:29;;;;;;;16.60;10.55;;;;;;;;;;5053099;28;20029;-67
2021/08/13 13:42:56;;;;;;;15.10;9.15;;;;;;;;;;5046980;28;20045;-66
2021/08/13 13:45:26;;;;;;;15.27;8.75;;;;;;;;;;5045914;28;20514;-68
2021/08/13 13:47:54;;;;;;;14.98;8.68;;;;;;;;;;5052346;28;20397;-67
2021/08/13 13:50:22;;;;;;;15.25;8.38;;;;;;;;;;5052948;28;20094;-67
2021/08/13 13:52:49;;;;;;;25.00;8.85;;;;;;;;;;5053016;28;20033;-67
2021/08/13 13:55:19;;;;;;;32.30;9.07;;;;;;;;;;5052710;28;20449;-69
2021/08/13 13:57:46;;;;;;;35.65;12.07;;;;;;;;;;5054802;28;20536;-68
2021/08/13 14:00:15;;;;;;;30.20;9.95;;;;;;;;;;5051917;28;20033;-67
2021/08/13 14:02:42;;;;;;;24.08;7.60;;;;;;;;;;5048738;28;20132;-67
2021/08/13 14:05:10;;;;;;;27.02;9.93;;;;;;;;;;5050419;28;20094;-68
2021/08/13 14:07:38;;;;;;;45.20;9.57;;;;;;;;;;5046506;28;20536;-67
2021/08/13 14:10:06;;;;;;;25.38;7.63;;;;;;;;;;5047953;28;20511;-67
2021/08/13 14:12:35;;;;;;;23.58;9.10;;;;;;;;;;5052578;28;20029;-67
2021/08/13 14:15:03;;;;;;;22.75;7.65;;;;;;;;;;5052394;28;20036;-67
2021/08/13 14:17:30;;;;;;;16.13;6.15;;;;;;;;;;5033560;28;20041;-67
2021/08/13 14:19:57;;;;;;;12.35;6.30;;;;;;;;;;5050158;28;20583;-67
2021/08/13 14:22:24;;;;;;;16.90;6.57;;;;;;;;;;5049551;28;20119;-68
2021/08/13 14:24:52;;;;;;;14.43;5.53;;;;;;;;;;5051928;28;20493;-68
2021/08/13 14:27:19;;;;;;;9.38;5.47;;;;;;;;;;5047215;28;20041;-68
2021/08/13 14:29:46;;;;;;;13.02;4.88;;;;;;;;;;5051321;28;20040;-68
2021/08/13 14:32:13;;;;;;;12.07;4.75;;;;;;;;;;5048354;28;20041;-68
2021/08/13 14:34:40;;;;;;;11.90;4.57;;;;;;;;;;5033727;28;20026;-68
2021/08/13 14:37:08;;;;;;;8.32;4.05;;;;;;;;;;5046833;28;20037;-68
2021/08/13 14:39:35;;;;;;;12.48;5.18;;;;;;;;;;5056929;28;20060;-68
2021/08/13 14:42:07;;;;;;;13.02;7.60;;;;;;;;;;5055740;28;20124;-68
2021/08/13 14:44:34;;;;;;;15.40;8.93;;;;;;;;;;5057819;28;20116;-68
2021/08/13 14:47:02;;;;;;;12.90;8.65;;;;;;;;;;5052084;28;20104;-67